createdAt,value
2022-09-02T00:00:10.296Z,5.20
2022-09-02T00:02:39.497Z,4.90
2022-09-02T00:05:07.605Z,4.63
2022-09-02T00:07:35.330Z,4.50
2022-09-02T00:10:03.062Z,4.35
2022-09-02T00:12:30.759Z,4.57
2022-09-02T00:14:58.515Z,4.93
2022-09-02T00:17:26.487Z,3.95
2022-09-02T00:19:56.290Z,4.25
2022-09-02T00:22:24.113Z,4.03
2022-09-02T00:24:51.983Z,4.43
2022-09-02T00:27:19.706Z,4.50
2022-09-02T00:29:47.558Z,4.40
2022-09-02T00:32:15.353Z,4.45
2022-09-02T00:34:43.027Z,4.22
2022-09-02T00:37:11.667Z,4.95
2022-09-02T00:39:39.873Z,4.57
2022-09-02T00:42:07.793Z,4.63
2022-09-02T00:44:35.641Z,4.82
2022-09-02T00:47:03.749Z,4.57
2022-09-02T00:49:35.209Z,4.13
2022-09-02T00:52:08.753Z,4.18
2022-09-02T00:54:41.419Z,4.38
2022-09-02T00:57:13.574Z,4.28
2022-09-02T01:00:02.528Z,4.32
2022-09-02T01:02:31.875Z,4.00
2022-09-02T01:05:00.972Z,4.50
2022-09-02T01:07:34.035Z,4.28
2022-09-02T01:10:03.168Z,4.30
2022-09-02T01:12:32.493Z,4.50
2022-09-02T01:15:01.004Z,4.78
2022-09-02T01:17:29.112Z,4.43
2022-09-02T01:20:05.219Z,4.57
2022-09-02T01:22:34.217Z,4.88
2022-09-02T01:25:09.858Z,4.32
2022-09-02T01:27:38.542Z,4.72
2022-09-02T01:30:08.771Z,4.60
2022-09-02T01:32:36.677Z,4.45
2022-09-02T01:35:05.702Z,4.28
2022-09-02T01:37:34.046Z,3.65
2022-09-02T01:40:02.451Z,4.65
2022-09-02T01:42:30.933Z,4.35
2022-09-02T01:44:58.771Z,4.00
2022-09-02T01:47:27.799Z,4.10
2022-09-02T01:49:56.170Z,4.10
2022-09-02T01:52:25.600Z,3.70
2022-09-02T01:54:53.583Z,3.40
2022-09-02T01:57:24.667Z,3.30
2022-09-02T01:59:53.920Z,3.20
2022-09-02T02:02:24.563Z,3.00
2022-09-02T02:04:53.900Z,3.83
2022-09-02T02:07:22.997Z,3.55
2022-09-02T02:09:52.104Z,2.95
2022-09-02T02:12:20.334Z,3.30
2022-09-02T02:14:48.888Z,3.28
2022-09-02T02:17:17.094Z,3.10
2022-09-02T02:19:44.936Z,3.50
2022-09-02T02:22:14.262Z,3.20
2022-09-02T02:24:41.965Z,3.10
2022-09-02T02:27:09.646Z,3.40
2022-09-02T02:29:37.418Z,2.83
2022-09-02T02:32:08.047Z,2.67
2022-09-02T02:34:36.177Z,2.60
2022-09-02T02:37:06.469Z,2.72
2022-09-02T02:39:34.168Z,3.10
2022-09-02T02:42:02.887Z,2.97
2022-09-02T02:44:31.603Z,3.13
2022-09-02T02:47:00.909Z,3.10
2022-09-02T02:49:28.689Z,3.53
2022-09-02T02:51:56.297Z,3.03
2022-09-02T02:54:24.268Z,3.20
2022-09-02T02:57:04.497Z,3.10
2022-09-02T02:59:32.865Z,3.60
2022-09-02T03:02:00.999Z,3.30
2022-09-02T03:04:28.771Z,3.08
2022-09-02T03:06:56.468Z,2.90
2022-09-02T03:09:24.512Z,3.35
2022-09-02T03:11:53.070Z,3.20
2022-09-02T03:14:20.863Z,3.22
2022-09-02T03:16:48.586Z,2.75
2022-09-02T03:19:18.862Z,2.63
2022-09-02T03:21:46.969Z,2.65
2022-09-02T03:24:15.028Z,2.50
2022-09-02T03:26:43.723Z,3.05
2022-09-02T03:29:12.454Z,3.05
2022-09-02T03:31:40.851Z,3.03
2022-09-02T03:34:08.790Z,2.88
2022-09-02T03:36:40.794Z,2.70
2022-09-02T03:39:12.071Z,2.45
2022-09-02T03:41:42.368Z,3.05
2022-09-02T03:44:11.891Z,2.88
2022-09-02T03:46:40.810Z,2.72
2022-09-02T03:49:08.811Z,2.80
2022-09-02T03:51:41.194Z,2.42
2022-09-02T03:54:10.391Z,2.97
2022-09-02T03:56:39.244Z,3.00
2022-09-02T03:59:08.381Z,2.78
2022-09-02T04:01:36.710Z,2.60
2022-09-02T04:04:06.547Z,2.97
2022-09-02T04:06:36.395Z,2.88
2022-09-02T04:09:05.204Z,2.90
2022-09-02T04:11:35.488Z,2.88
2022-09-02T04:14:03.310Z,2.80
2022-09-02T04:16:34.030Z,3.38
2022-09-02T04:19:07.516Z,2.65
2022-09-02T04:21:38.007Z,3.35
2022-09-02T04:24:09.416Z,3.00
2022-09-02T04:26:44.819Z,3.15
2022-09-02T04:29:14.118Z,2.92
2022-09-02T04:31:49.259Z,2.90
2022-09-02T04:34:26.930Z,2.92
2022-09-02T04:36:59.097Z,2.90
2022-09-02T04:39:26.718Z,2.90
2022-09-02T04:41:58.542Z,3.45
2022-09-02T04:44:27.342Z,3.25
2022-09-02T04:46:55.072Z,3.03
2022-09-02T04:49:23.991Z,3.00
2022-09-02T04:51:54.725Z,3.50
2022-09-02T04:54:24.956Z,2.70
2022-09-02T04:56:54.057Z,2.90
2022-09-02T04:59:24.228Z,2.97
2022-09-02T05:02:08.784Z,3.67
2022-09-02T05:04:37.081Z,3.13
2022-09-02T05:07:08.696Z,3.05
2022-09-02T05:10:41.374Z,3.13
2022-09-02T05:13:33.482Z,3.10
2022-09-02T05:16:01.687Z,3.60
2022-09-02T05:18:31.430Z,3.80
2022-09-02T05:20:59.604Z,3.72
2022-09-02T05:23:27.986Z,3.00
2022-09-02T05:25:56.625Z,3.22
2022-09-02T05:28:25.220Z,3.25
2022-09-02T05:30:53.210Z,2.88
2022-09-02T05:33:23.137Z,3.42
2022-09-02T05:35:53.461Z,3.17
2022-09-02T05:38:21.813Z,3.08
2022-09-02T05:40:50.089Z,3.10
2022-09-02T05:43:19.399Z,3.15
2022-09-02T05:45:49.331Z,2.85
2022-09-02T05:48:36.528Z,3.50
2022-09-02T05:51:05.992Z,3.73
2022-09-02T05:53:35.413Z,3.60
2022-09-02T05:56:06.876Z,4.00
2022-09-02T05:58:35.779Z,3.10
2022-09-02T06:01:11.286Z,3.53
2022-09-02T06:03:39.610Z,4.22
2022-09-02T06:06:08.895Z,3.58
2022-09-02T06:08:41.525Z,3.40
2022-09-02T06:11:12.188Z,3.63
2022-09-02T06:13:43.019Z,3.70
2022-09-02T06:16:18.199Z,4.00
2022-09-02T06:18:50.040Z,3.65
2022-09-02T06:21:20.965Z,3.72
2022-09-02T06:23:52.413Z,3.67
2022-09-02T06:26:20.895Z,3.78
2022-09-02T06:28:49.300Z,4.18
2022-09-02T06:31:20.703Z,3.70
2022-09-02T06:33:53.414Z,4.10
2022-09-02T06:36:28.297Z,3.88
2022-09-02T06:39:00.090Z,4.43
2022-09-02T06:41:34.521Z,4.38
2022-09-02T06:44:07.788Z,3.90
2022-09-02T06:46:44.525Z,3.95
2022-09-02T06:49:17.536Z,4.65
2022-09-02T06:51:52.439Z,4.20
2022-09-02T06:54:23.057Z,4.53
2022-09-02T06:56:58.714Z,4.20
2022-09-02T06:59:28.970Z,3.78
2022-09-02T07:02:00.438Z,4.05
2022-09-02T07:04:51.239Z,4.40
2022-09-02T07:07:25.560Z,4.43
2022-09-02T07:10:13.182Z,4.20
2022-09-02T07:12:44.554Z,3.50
2022-09-02T07:15:18.707Z,3.55
2022-09-02T07:17:51.426Z,4.68
2022-09-02T07:20:28.796Z,3.40
2022-09-02T07:23:03.472Z,3.78
2022-09-02T07:25:37.240Z,3.50
2022-09-02T07:28:15.845Z,3.90
2022-09-02T07:30:45.160Z,3.92
2022-09-02T07:33:16.857Z,3.70
2022-09-02T07:35:46.703Z,3.53
2022-09-02T07:38:18.433Z,3.47
2022-09-02T07:40:47.428Z,4.10
2022-09-02T07:43:16.634Z,4.38
2022-09-02T07:45:45.200Z,5.03
2022-09-02T07:48:15.251Z,4.25
2022-09-02T07:50:44.251Z,5.18
2022-09-02T07:53:16.725Z,4.88
2022-09-02T07:55:47.312Z,4.55
2022-09-02T07:58:17.601Z,4.80
2022-09-02T08:00:45.719Z,5.68
2022-09-02T08:03:15.691Z,4.43
2022-09-02T08:05:49.181Z,4.50
2022-09-02T08:08:20.501Z,4.25
2022-09-02T08:10:50.803Z,4.22
2022-09-02T08:13:19.301Z,4.40
2022-09-02T08:15:50.861Z,4.07
2022-09-02T08:18:22.650Z,3.72
2022-09-02T08:20:51.223Z,4.43
2022-09-02T08:23:33.608Z,4.35
2022-09-02T08:26:05.807Z,4.85
2022-09-02T08:28:33.853Z,5.38
2022-09-02T08:31:05.240Z,5.80
2022-09-02T08:33:33.150Z,6.65
2022-09-02T08:36:11.244Z,5.60
2022-09-02T08:38:38.990Z,5.50
2022-09-02T08:41:37.562Z,5.35
2022-09-02T08:44:07.321Z,6.90
2022-09-02T08:46:36.143Z,7.30
2022-09-02T08:49:08.837Z,7.07
2022-09-02T08:51:56.297Z,6.32
2022-09-02T08:54:36.741Z,5.75
2022-09-02T08:57:05.477Z,6.00
2022-09-02T08:59:33.412Z,6.20
2022-09-02T09:02:22.687Z,5.68
2022-09-02T09:05:19.400Z,5.43
2022-09-02T09:07:57.726Z,4.75
2022-09-02T09:10:53.282Z,5.18
2022-09-02T09:13:48.740Z,5.53
2022-09-02T09:16:34.343Z,5.40
2022-09-02T09:19:44.367Z,4.63
2022-09-02T09:22:16.655Z,5.35
2022-09-02T09:24:46.714Z,4.88
2022-09-02T09:27:24.048Z,4.70
2022-09-02T09:29:52.676Z,4.55
2022-09-02T09:32:26.647Z,4.18
2022-09-02T09:34:57.530Z,5.00
2022-09-02T09:37:45.813Z,3.70
2022-09-02T09:40:24.817Z,4.43
2022-09-02T09:43:14.598Z,3.72
2022-09-02T09:45:45.878Z,5.35
2022-09-02T09:48:29.199Z,5.95
2022-09-02T09:50:58.067Z,5.78
2022-09-02T09:53:30.103Z,6.18
2022-09-02T09:56:26.740Z,4.63
2022-09-02T09:58:54.696Z,4.35
2022-09-02T10:01:31.263Z,4.07
2022-09-02T10:06:30.088Z,3.58
2022-09-02T10:09:14.257Z,3.60
2022-09-02T10:11:54.502Z,3.90
2022-09-02T10:14:23.743Z,3.40
2022-09-02T10:17:10.559Z,3.85
2022-09-02T10:19:52.295Z,4.63
2022-09-02T10:22:58.429Z,3.30
2022-09-02T10:26:07.903Z,3.97
2022-09-02T10:28:54.355Z,3.10
2022-09-02T10:31:41.510Z,3.60
2022-09-02T10:37:00.876Z,3.08
2022-09-02T10:39:56.417Z,3.75
2022-09-02T10:42:39.674Z,3.22
2022-09-02T10:45:18.046Z,3.40
2022-09-02T10:48:03.808Z,2.92
2022-09-02T10:50:42.645Z,3.67
2022-09-02T10:53:15.263Z,4.53
2022-09-02T10:55:59.470Z,5.15
2022-09-02T10:58:45.342Z,8.75
2022-09-02T11:01:20.810Z,10.95
2022-09-02T11:03:58.489Z,8.43
2022-09-02T11:06:40.206Z,7.18
2022-09-02T11:09:33.310Z,5.35
2022-09-02T11:12:11.856Z,3.67
2022-09-02T11:14:51.672Z,4.60
2022-09-02T11:17:28.784Z,4.82
2022-09-02T11:20:04.013Z,5.22
2022-09-02T11:22:45.338Z,5.63
2022-09-02T11:25:18.318Z,4.47
2022-09-02T11:27:59.983Z,4.93
2022-09-02T11:30:37.877Z,4.47
2022-09-02T11:33:39.838Z,3.55
2022-09-02T11:36:08.052Z,4.10
2022-09-02T11:38:41.819Z,4.30
2022-09-02T11:41:35.808Z,6.03
2022-09-02T11:44:41.105Z,7.15
2022-09-02T11:47:27.385Z,7.97
2022-09-02T11:50:39.526Z,6.90
2022-09-02T11:53:31.205Z,7.07
2022-09-02T11:56:04.384Z,6.43
2022-09-02T11:58:33.921Z,7.05
2022-09-02T12:01:28.247Z,6.15
2022-09-02T12:04:48.571Z,5.20
2022-09-02T12:07:09.447Z,4.50
2022-09-02T12:12:37.658Z,5.78
2022-09-02T12:15:05.977Z,6.05
2022-09-02T12:17:40.156Z,6.05
2022-09-02T12:20:38.573Z,6.18
2022-09-02T12:23:08.349Z,5.20
2022-09-02T12:25:49.178Z,5.35
2022-09-02T12:28:30.673Z,5.30
2022-09-02T12:31:18.018Z,7.65
2022-09-02T12:33:51.887Z,13.90
2022-09-02T12:36:39.288Z,45.45
2022-09-02T12:39:27.554Z,93.57
2022-09-02T12:42:12.987Z,84.05
2022-09-02T12:45:02.209Z,37.33
2022-09-02T12:48:02.689Z,33.00
2022-09-02T12:50:49.623Z,12.77
2022-09-02T12:53:40.371Z,5.97
2022-09-02T12:56:23.350Z,5.90
2022-09-02T12:58:55.308Z,7.47
2022-09-02T13:01:59.356Z,7.82
2022-09-02T13:05:28.747Z,8.32
2022-09-02T13:08:05.468Z,7.75
2022-09-02T13:10:33.165Z,8.13
2022-09-02T13:13:32.816Z,7.32
2022-09-02T13:16:19.427Z,7.78
2022-09-02T13:19:02.515Z,7.28
2022-09-02T13:21:36.220Z,7.32
2022-09-02T13:24:14.513Z,7.60
2022-09-02T13:27:01.141Z,6.50
2022-09-02T13:29:38.072Z,7.15
2022-09-02T13:32:23.641Z,6.30
2022-09-02T13:34:55.703Z,5.63
2022-09-02T13:37:32.786Z,4.00
2022-09-02T13:40:05.578Z,4.05
2022-09-02T13:42:33.392Z,4.70
2022-09-02T13:45:16.204Z,3.40
2022-09-02T13:47:46.994Z,3.63
2022-09-02T13:50:21.796Z,3.47
2022-09-02T13:55:54.025Z,6.07
2022-09-02T13:58:31.171Z,5.78
2022-09-02T14:01:17.910Z,5.25
2022-09-02T14:03:51.987Z,5.35
2022-09-02T14:06:27.941Z,4.00
2022-09-02T14:09:06.766Z,4.05
2022-09-02T14:11:45.775Z,4.15
2022-09-02T14:14:20.214Z,4.20
2022-09-02T14:16:48.212Z,4.43
2022-09-02T14:19:18.722Z,3.95
2022-09-02T14:21:52.192Z,4.35
2022-09-02T14:24:37.225Z,3.65
2022-09-02T14:27:17.859Z,3.45
2022-09-02T14:29:47.507Z,4.40
2022-09-02T14:32:21.927Z,4.95
2022-09-02T14:35:08.663Z,3.72
2022-09-02T14:37:55.835Z,4.78
2022-09-02T14:40:43.548Z,3.28
2022-09-02T14:43:16.400Z,3.75
2022-09-02T14:45:49.073Z,3.75
2022-09-02T14:48:24.066Z,4.40
2022-09-02T14:51:05.675Z,4.68
2022-09-02T14:53:37.578Z,3.85
2022-09-02T14:56:06.222Z,3.47
2022-09-02T14:58:34.427Z,3.83
2022-09-02T15:01:02.542Z,3.75
2022-09-02T15:03:32.804Z,3.60
2022-09-02T15:06:00.730Z,4.03
2022-09-02T15:08:28.513Z,3.67
2022-09-02T15:11:00.024Z,3.85
2022-09-02T15:13:32.717Z,3.90
2022-09-02T15:16:01.171Z,3.88
2022-09-02T15:18:28.999Z,4.70
2022-09-02T15:20:57.667Z,3.80
2022-09-02T15:23:28.647Z,3.63
2022-09-02T15:25:57.835Z,3.83
2022-09-02T15:28:25.534Z,4.03
2022-09-02T15:31:00.875Z,4.75
2022-09-02T15:33:29.302Z,4.72
2022-09-02T15:36:12.967Z,4.38
2022-09-02T15:38:41.469Z,5.53
2022-09-02T15:41:20.399Z,5.45
2022-09-02T15:43:48.929Z,5.50
2022-09-02T15:46:29.731Z,5.60
2022-09-02T15:49:02.830Z,5.45
2022-09-02T15:51:31.787Z,4.00
2022-09-02T15:54:02.141Z,4.35
2022-09-02T15:56:33.336Z,4.43
2022-09-02T15:59:22.342Z,4.18
2022-09-02T16:01:52.368Z,4.47
2022-09-02T16:04:20.158Z,5.10
2022-09-02T16:06:49.845Z,3.92
2022-09-02T16:09:18.330Z,4.22
2022-09-02T16:11:52.024Z,4.53
2022-09-02T16:14:21.466Z,4.32
2022-09-02T16:16:51.085Z,4.25
2022-09-02T16:19:21.685Z,4.43
2022-09-02T16:21:53.435Z,4.43
2022-09-02T16:24:22.931Z,3.80
2022-09-02T16:26:51.667Z,3.85
2022-09-02T16:29:19.933Z,4.80
2022-09-02T16:32:02.349Z,4.85
2022-09-02T16:34:37.347Z,4.85
2022-09-02T16:37:05.914Z,4.60
2022-09-02T16:39:34.013Z,3.75
2022-09-02T16:42:04.735Z,5.65
2022-09-02T16:44:34.315Z,4.88
2022-09-02T16:47:02.022Z,4.22
2022-09-02T16:49:29.877Z,3.70
2022-09-02T16:51:59.759Z,6.07
2022-09-02T16:54:32.957Z,5.63
2022-09-02T16:57:02.109Z,4.25
2022-09-02T16:59:31.925Z,4.00
2022-09-02T17:01:59.940Z,4.75
2022-09-02T17:04:27.840Z,3.88
2022-09-02T17:06:57.313Z,3.55
2022-09-02T17:09:25.585Z,4.30
2022-09-02T17:11:54.146Z,4.05
2022-09-02T17:14:22.308Z,4.28
2022-09-02T17:16:51.737Z,3.97
2022-09-02T17:19:21.827Z,4.40
2022-09-02T17:21:52.579Z,3.80
2022-09-02T17:24:28.298Z,4.13
2022-09-02T17:26:56.669Z,4.40
2022-09-02T17:29:49.602Z,3.30
2022-09-02T17:32:18.843Z,3.67
2022-09-02T17:34:48.974Z,3.55
2022-09-02T17:37:17.313Z,3.25
2022-09-02T17:39:46.145Z,2.70
2022-09-02T17:42:15.328Z,2.60
2022-09-02T17:44:43.262Z,2.80
2022-09-02T17:47:17.374Z,2.60
2022-09-02T17:49:45.138Z,2.40
2022-09-02T17:52:15.367Z,2.15
2022-09-02T17:54:43.571Z,1.95
2022-09-02T17:57:33.425Z,2.30
2022-09-02T18:00:11.887Z,3.08
2022-09-02T18:03:01.294Z,3.63
2022-09-02T18:06:04.016Z,2.38
2022-09-02T18:09:04.130Z,2.35
2022-09-02T18:11:32.002Z,2.35
2022-09-02T18:14:40.923Z,1.95
2022-09-02T18:17:23.699Z,2.50
2022-09-02T18:19:54.446Z,3.20
2022-09-02T18:22:25.346Z,2.35
2022-09-02T18:25:21.524Z,2.90
2022-09-02T18:28:02.890Z,2.53
2022-09-02T18:31:10.482Z,2.10
2022-09-02T18:33:38.065Z,2.20
2022-09-02T18:36:18.173Z,2.20
2022-09-02T18:38:52.009Z,1.95
2022-09-02T18:41:23.189Z,2.47
2022-09-02T18:44:24.961Z,2.00
2022-09-02T18:47:05.474Z,2.45
2022-09-02T18:49:37.380Z,3.00
2022-09-02T18:52:10.882Z,4.78
2022-09-02T18:55:00.290Z,5.00
2022-09-02T18:57:33.654Z,4.28
2022-09-02T19:00:10.287Z,4.50
2022-09-02T19:05:26.738Z,2.95
2022-09-02T19:11:19.534Z,2.30
2022-09-02T19:13:51.376Z,2.40
2022-09-02T19:16:24.474Z,4.47
2022-09-02T19:18:53.131Z,5.88
2022-09-02T19:21:37.011Z,4.82
2022-09-02T19:24:11.814Z,3.53
2022-09-02T19:26:46.130Z,2.97
2022-09-02T19:29:19.040Z,2.70
2022-09-02T19:31:54.842Z,2.22
2022-09-02T19:34:24.278Z,1.92
2022-09-02T19:36:55.960Z,1.80
2022-09-02T19:39:23.850Z,1.98
2022-09-02T19:41:54.254Z,2.15
2022-09-02T19:44:22.103Z,2.10
2022-09-02T19:48:02.830Z,2.22
2022-09-02T19:49:38.285Z,2.42
2022-09-02T19:52:05.971Z,2.20
2022-09-02T19:54:33.897Z,2.10
2022-09-02T19:57:02.910Z,2.03
2022-09-02T19:59:34.229Z,1.95
2022-09-02T20:02:04.781Z,2.05
2022-09-02T20:04:33.422Z,1.70
2022-09-02T20:07:02.163Z,1.60
2022-09-02T20:09:30.255Z,1.73
2022-09-02T20:11:57.932Z,1.70
2022-09-02T20:14:26.518Z,1.85
2022-09-02T20:17:02.483Z,2.55
2022-09-02T20:19:31.601Z,2.00
2022-09-02T20:22:00.075Z,2.30
2022-09-02T20:24:33.968Z,2.60
2022-09-02T20:27:25.547Z,2.25
2022-09-02T20:30:09.288Z,2.50
2022-09-02T20:32:56.903Z,1.83
2022-09-02T20:35:40.273Z,2.08
2022-09-02T20:38:40.705Z,1.80
2022-09-02T20:41:13.442Z,1.60
2022-09-02T20:44:11.542Z,1.70
2022-09-02T20:47:27.195Z,1.80
2022-09-02T20:50:21.802Z,1.80
2022-09-02T20:53:22.165Z,1.85
2022-09-02T20:56:11.010Z,1.80
2022-09-02T21:01:57.138Z,2.22
2022-09-02T21:04:44.375Z,2.03
2022-09-02T21:07:41.870Z,2.45
2022-09-02T21:10:22.346Z,2.47
2022-09-02T21:13:22.391Z,2.40
2022-09-02T21:16:10.243Z,2.78
2022-09-02T21:19:02.231Z,2.47
2022-09-02T21:22:07.355Z,2.10
2022-09-02T21:25:13.714Z,2.13
2022-09-02T21:27:58.082Z,2.50
2022-09-02T21:30:37.201Z,2.25
2022-09-02T21:33:13.793Z,2.10
2022-09-02T21:35:54.080Z,2.00
2022-09-02T21:38:47.673Z,1.92
2022-09-02T21:41:40.829Z,2.63
2022-09-02T21:44:35.462Z,3.70
2022-09-02T21:47:41.191Z,3.15
2022-09-02T21:50:22.074Z,3.13
2022-09-02T21:53:12.585Z,2.70
2022-09-02T21:56:06.853Z,2.38
2022-09-02T21:58:53.380Z,2.38
2022-09-02T22:01:47.430Z,2.22
2022-09-02T22:04:38.616Z,2.45
2022-09-02T22:07:38.379Z,2.10
2022-09-02T22:10:21.909Z,2.28
2022-09-02T22:12:52.506Z,2.20
2022-09-02T22:15:26.683Z,1.88
2022-09-02T22:18:22.970Z,1.98
2022-09-02T22:21:04.313Z,1.90
2022-09-02T22:23:48.836Z,1.92
2022-09-02T22:26:35.665Z,2.10
2022-09-02T22:29:18.667Z,2.28
2022-09-02T22:31:54.759Z,1.90
2022-09-02T22:34:24.495Z,1.77
2022-09-02T22:37:00.492Z,2.20
2022-09-02T22:39:52.814Z,2.28
2022-09-02T22:42:37.762Z,2.17
2022-09-02T22:45:39.917Z,2.40
2022-09-02T22:48:40.757Z,2.08
2022-09-02T22:51:39.346Z,2.10
2022-09-02T22:54:07.172Z,2.20
2022-09-02T22:57:10.375Z,2.03
2022-09-02T23:00:02.679Z,2.03
2022-09-02T23:03:05.503Z,2.05
2022-09-02T23:05:55.050Z,2.28
2022-09-02T23:08:24.769Z,1.90
2022-09-02T23:11:07.004Z,1.83
2022-09-02T23:13:56.408Z,2.10
2022-09-02T23:16:35.341Z,1.67
2022-09-02T23:19:41.416Z,2.40
2022-09-02T23:22:44.712Z,1.92
2022-09-02T23:25:14.070Z,2.20
2022-09-02T23:27:51.922Z,1.73
2022-09-02T23:30:19.841Z,2.03
2022-09-02T23:33:10.236Z,1.90
2022-09-02T23:36:03.166Z,1.98
2022-09-02T23:38:43.352Z,1.80
2022-09-02T23:41:12.895Z,2.05
2022-09-02T23:43:44.269Z,1.80
2022-09-02T23:46:56.989Z,1.77
2022-09-02T23:49:47.307Z,1.80
2022-09-02T23:52:36.854Z,1.98
2022-09-02T23:55:24.299Z,1.70
2022-09-02T23:58:19.467Z,1.80
